createdAt,value
2018-11-03T00:01:52.018Z,4.50
2018-11-03T00:04:39.449Z,4.60
2018-11-03T00:07:17.136Z,4.60
2018-11-03T00:10:00.631Z,4.60
2018-11-03T00:12:51.450Z,4.60
2018-11-03T00:15:41.513Z,4.60
2018-11-03T00:18:15.620Z,4.60
2018-11-03T00:21:06.135Z,4.50
2018-11-03T00:23:52.616Z,4.50
2018-11-03T00:26:41.275Z,4.50
2018-11-03T00:29:20.414Z,4.40
2018-11-03T00:32:11.332Z,4.30
2018-11-03T00:35:04.833Z,4.20
2018-11-03T00:37:52.646Z,4.10
2018-11-03T00:40:22.810Z,4.10
2018-11-03T00:42:56.846Z,4.10
2018-11-03T00:45:31.561Z,4.10
2018-11-03T00:51:07.513Z,4.10
2018-11-03T00:53:39.099Z,4.00
2018-11-03T00:56:10.710Z,4.10
2018-11-03T00:58:45.393Z,4.20
2018-11-03T01:01:21.527Z,4.20
2018-11-03T01:03:54.120Z,4.20
2018-11-03T01:06:32.011Z,4.20
2018-11-03T01:09:03.167Z,4.20
2018-11-03T01:11:36.986Z,4.20
2018-11-03T01:14:12.602Z,4.20
2018-11-03T01:16:53.201Z,4.10
2018-11-03T01:19:25.490Z,4.10
2018-11-03T01:21:57.060Z,4.00
2018-11-03T01:24:30.226Z,4.00
2018-11-03T01:27:01.553Z,3.90
2018-11-03T01:29:32.247Z,3.90
2018-11-03T01:32:03.742Z,3.90
2018-11-03T01:34:39.440Z,3.90
2018-11-03T01:37:31.709Z,3.90
2018-11-03T01:40:14.408Z,3.90
2018-11-03T01:42:46.756Z,3.80
2018-11-03T01:45:17.200Z,3.90
2018-11-03T01:47:50.928Z,3.80
2018-11-03T01:50:21.806Z,3.80
2018-11-03T01:52:51.866Z,3.80
2018-11-03T01:55:22.389Z,3.90
2018-11-03T01:57:53.339Z,3.90
2018-11-03T02:00:27.579Z,3.90
2018-11-03T02:02:58.959Z,3.90
2018-11-03T02:05:41.220Z,3.90
2018-11-03T02:08:20.144Z,3.90
2018-11-03T02:10:58.004Z,3.90
2018-11-03T02:16:09.206Z,3.90
2018-11-03T02:18:42.685Z,3.90
2018-11-03T02:21:15.018Z,3.80
2018-11-03T02:23:46.187Z,3.90
2018-11-03T02:26:18.362Z,3.80
2018-11-03T02:28:48.787Z,3.90
2018-11-03T02:31:20.195Z,3.90
2018-11-03T02:33:51.931Z,4.00
2018-11-03T02:36:23.685Z,3.90
2018-11-03T02:38:53.957Z,4.00
2018-11-03T02:41:24.330Z,3.90
2018-11-03T02:43:57.103Z,4.00
2018-11-03T02:46:28.243Z,3.90
2018-11-03T02:49:00.039Z,4.00
2018-11-03T02:51:33.657Z,3.90
2018-11-03T02:54:04.942Z,3.90
2018-11-03T02:56:35.542Z,3.90
2018-11-03T02:59:07.378Z,3.80
2018-11-03T03:01:40.402Z,3.90
2018-11-03T03:04:15.624Z,3.90
2018-11-03T03:06:46.622Z,3.90
2018-11-03T03:09:16.790Z,3.90
2018-11-03T03:11:48.198Z,4.00
2018-11-03T03:14:18.886Z,4.00
2018-11-03T03:16:50.661Z,4.00
2018-11-03T03:19:23.049Z,4.00
2018-11-03T03:21:55.153Z,4.10
2018-11-03T03:24:26.970Z,4.10
2018-11-03T03:26:58.553Z,4.00
2018-11-03T03:29:29.024Z,3.90
2018-11-03T03:32:00.575Z,4.00
2018-11-03T03:34:31.816Z,4.00
2018-11-03T03:37:03.775Z,3.90
2018-11-03T03:39:34.396Z,3.90
2018-11-03T03:42:06.490Z,3.90
2018-11-03T03:44:36.615Z,3.80
2018-11-03T03:47:08.302Z,3.80
2018-11-03T03:49:40.670Z,3.70
2018-11-03T03:52:10.846Z,3.70
2018-11-03T03:54:41.816Z,3.80
2018-11-03T03:57:12.892Z,3.80
2018-11-03T03:59:43.708Z,3.80
2018-11-03T04:02:15.862Z,3.70
2018-11-03T04:04:53.650Z,3.70
2018-11-03T04:07:27.402Z,3.80
2018-11-03T04:09:59.969Z,3.80
2018-11-03T04:12:30.275Z,3.80
2018-11-03T04:15:00.407Z,3.80
2018-11-03T04:17:34.055Z,3.80
2018-11-03T04:20:05.495Z,3.90
2018-11-03T04:22:37.649Z,3.90
2018-11-03T04:25:07.600Z,3.80
2018-11-03T04:27:38.182Z,3.90
2018-11-03T04:30:12.069Z,3.90
2018-11-03T04:32:48.101Z,3.90
2018-11-03T04:35:18.582Z,3.90
2018-11-03T04:37:48.266Z,3.80
2018-11-03T04:40:20.597Z,3.70
2018-11-03T04:42:52.527Z,3.70
2018-11-03T04:45:24.620Z,3.70
2018-11-03T04:47:55.432Z,3.60
2018-11-03T04:50:25.682Z,3.60
2018-11-03T04:53:06.659Z,3.50
2018-11-03T04:55:40.349Z,3.50
2018-11-03T04:58:10.643Z,3.50
2018-11-03T05:00:47.537Z,3.40
2018-11-03T05:03:18.546Z,3.40
2018-11-03T05:06:12.211Z,3.40
2018-11-03T05:10:04.453Z,3.30
2018-11-03T05:15:19.331Z,3.40
2018-11-03T05:17:49.438Z,3.40
2018-11-03T05:20:23.151Z,3.40
2018-11-03T05:22:55.507Z,3.30
2018-11-03T05:25:34.999Z,3.30
2018-11-03T05:28:11.964Z,3.20
2018-11-03T05:30:42.492Z,3.20
2018-11-03T05:33:13.540Z,3.10
2018-11-03T05:35:44.266Z,3.10
2018-11-03T05:38:16.724Z,2.90
2018-11-03T05:40:48.890Z,2.90
2018-11-03T05:43:20.991Z,2.90
2018-11-03T05:45:52.979Z,2.90
2018-11-03T05:48:23.931Z,2.90
2018-11-03T05:51:01.403Z,2.80
2018-11-03T05:53:34.237Z,2.80
2018-11-03T05:56:06.146Z,2.80
2018-11-03T05:58:36.808Z,2.80
2018-11-03T06:01:09.144Z,2.70
2018-11-03T06:03:39.393Z,2.70
2018-11-03T06:06:10.614Z,2.70
2018-11-03T06:08:41.185Z,2.60
2018-11-03T06:11:11.047Z,2.60
2018-11-03T06:13:52.541Z,2.70
2018-11-03T06:16:29.805Z,2.70
2018-11-03T06:19:00.421Z,2.70
2018-11-03T06:21:32.267Z,2.70
2018-11-03T06:24:02.330Z,2.70
2018-11-03T06:26:35.655Z,2.60
2018-11-03T06:29:07.317Z,2.60
2018-11-03T06:31:53.429Z,2.50
2018-11-03T06:34:25.450Z,2.50
2018-11-03T06:36:56.668Z,2.50
2018-11-03T06:39:30.925Z,2.60
2018-11-03T06:42:03.844Z,2.60
2018-11-03T06:44:42.347Z,2.70
2018-11-03T06:47:26.264Z,2.60
2018-11-03T06:49:58.257Z,2.60
2018-11-03T06:52:31.601Z,2.60
2018-11-03T06:55:03.571Z,2.60
2018-11-03T06:57:35.118Z,2.60
2018-11-03T07:00:10.092Z,2.60
2018-11-03T07:02:45.972Z,2.60
2018-11-03T07:05:16.503Z,2.50
2018-11-03T07:07:46.062Z,2.50
2018-11-03T07:10:16.031Z,2.60
2018-11-03T07:12:50.374Z,2.60
2018-11-03T07:15:26.553Z,2.70
2018-11-03T07:17:58.634Z,2.60
2018-11-03T07:20:39.090Z,2.70
2018-11-03T07:23:11.059Z,2.70
2018-11-03T07:25:46.160Z,2.70
2018-11-03T07:28:18.920Z,2.70
2018-11-03T07:30:50.688Z,2.70
2018-11-03T07:33:21.888Z,2.60
2018-11-03T07:35:53.920Z,2.70
2018-11-03T07:38:25.127Z,2.80
2018-11-03T07:41:00.479Z,2.80
2018-11-03T07:43:37.641Z,2.90
2018-11-03T07:46:11.635Z,3.00
2018-11-03T07:48:49.674Z,3.00
2018-11-03T07:51:33.240Z,3.10
2018-11-03T07:54:04.991Z,3.10
2018-11-03T07:56:35.682Z,3.30
2018-11-03T07:59:06.671Z,3.40
2018-11-03T08:01:54.661Z,3.50
2018-11-03T08:04:31.239Z,3.60
2018-11-03T08:07:03.077Z,3.70
2018-11-03T08:09:33.993Z,3.70
2018-11-03T08:12:22.536Z,3.80
2018-11-03T08:14:58.331Z,3.80
2018-11-03T08:17:42.193Z,3.90
2018-11-03T08:20:29.299Z,4.00
2018-11-03T08:23:20.629Z,4.10
2018-11-03T08:26:06.440Z,4.20
2018-11-03T08:28:47.655Z,4.70
2018-11-03T08:31:32.869Z,5.10
2018-11-03T08:34:05.128Z,5.40
2018-11-03T08:36:37.073Z,5.70
2018-11-03T08:39:22.309Z,5.90
2018-11-03T08:42:08.005Z,6.20
2018-11-03T08:44:48.894Z,6.50
2018-11-03T08:47:19.821Z,6.80
2018-11-03T08:49:54.438Z,7.10
2018-11-03T08:52:27.008Z,7.30
2018-11-03T08:55:01.042Z,7.20
2018-11-03T08:57:40.115Z,7.20
2018-11-03T09:00:16.318Z,7.20
2018-11-03T09:02:51.844Z,7.30
2018-11-03T09:05:38.645Z,7.40
2018-11-03T09:08:12.851Z,7.30
2018-11-03T09:10:51.956Z,7.20
2018-11-03T09:13:29.525Z,7.20
2018-11-03T09:15:59.938Z,7.30
2018-11-03T09:19:01.496Z,7.40
2018-11-03T09:24:31.774Z,7.60
2018-11-03T09:27:08.012Z,7.60
2018-11-03T09:32:31.614Z,7.40
2018-11-03T09:35:28.658Z,7.40
2018-11-03T09:38:22.083Z,7.40
2018-11-03T09:41:00.757Z,7.30
2018-11-03T09:43:58.176Z,7.30
2018-11-03T09:52:27.116Z,7.30
2018-11-03T10:01:00.425Z,7.30
2018-11-03T10:03:46.807Z,7.40
2018-11-03T10:06:23.710Z,7.40
2018-11-03T10:08:57.706Z,7.40
2018-11-03T10:11:31.116Z,7.40
2018-11-03T10:14:03.848Z,7.50
2018-11-03T10:16:42.168Z,7.60
2018-11-03T10:19:58.666Z,7.70
2018-11-03T10:22:33.408Z,7.80
2018-11-03T10:25:08.625Z,7.90
2018-11-03T10:30:51.081Z,8.00
2018-11-03T10:36:30.595Z,8.10
2018-11-03T10:42:19.926Z,8.10
2018-11-03T10:50:58.192Z,8.30
2018-11-03T10:53:35.395Z,8.40
2018-11-03T10:56:24.301Z,8.50
2018-11-03T10:59:04.220Z,8.60
2018-11-03T11:04:55.633Z,8.80
2018-11-03T11:11:29.278Z,8.90
2018-11-03T11:14:19.962Z,8.90
2018-11-03T11:16:50.788Z,9.10
2018-11-03T11:19:26.567Z,9.20
2018-11-03T11:22:04.020Z,9.30
2018-11-03T11:24:38.323Z,9.40
2018-11-03T11:27:24.181Z,9.50
2018-11-03T11:38:01.828Z,9.90
2018-11-03T11:40:33.094Z,9.90
2018-11-03T11:43:12.607Z,10.00
2018-11-03T11:45:45.679Z,10.20
2018-11-03T11:48:35.744Z,10.20
2018-11-03T11:51:20.495Z,10.10
2018-11-03T11:53:56.923Z,10.10
2018-11-03T11:56:30.206Z,10.20
2018-11-03T11:59:15.164Z,10.20
2018-11-03T12:01:49.038Z,10.20
2018-11-03T12:04:19.946Z,10.30
2018-11-03T12:07:06.143Z,10.30
2018-11-03T12:09:43.503Z,10.30
2018-11-03T12:12:23.830Z,10.30
2018-11-03T12:15:31.663Z,10.30
2018-11-03T12:18:04.756Z,10.20
2018-11-03T12:20:39.492Z,10.20
2018-11-03T12:23:17.078Z,10.30
2018-11-03T12:32:44.944Z,10.40
2018-11-03T12:36:10.003Z,10.50
2018-11-03T12:41:53.202Z,10.40
2018-11-03T12:44:26.446Z,10.40
2018-11-03T12:47:04.529Z,10.50
2018-11-03T12:49:56.919Z,10.60
2018-11-03T12:53:00.367Z,10.60
2018-11-03T12:56:00.889Z,10.60
2018-11-03T12:58:54.291Z,10.70
2018-11-03T13:01:28.826Z,10.80
2018-11-03T13:04:10.256Z,10.80
2018-11-03T13:11:07.809Z,10.80
2018-11-03T13:13:45.963Z,10.80
2018-11-03T13:16:24.591Z,10.80
2018-11-03T13:18:59.434Z,10.90
2018-11-03T13:22:39.170Z,10.80
2018-11-03T13:25:15.841Z,10.70
2018-11-03T13:27:49.026Z,10.80
2018-11-03T13:30:29.081Z,10.80
2018-11-03T13:33:01.974Z,10.80
2018-11-03T13:35:54.988Z,10.70
2018-11-03T13:38:28.317Z,10.70
2018-11-03T13:41:03.808Z,10.70
2018-11-03T13:43:56.165Z,10.60
2018-11-03T13:49:57.344Z,10.60
2018-11-03T13:55:54.264Z,10.70
2018-11-03T13:58:34.470Z,10.70
2018-11-03T14:01:11.928Z,10.70
2018-11-03T14:03:51.594Z,10.70
2018-11-03T14:06:27.852Z,10.70
2018-11-03T14:12:01.697Z,10.60
2018-11-03T14:14:57.272Z,10.60
2018-11-03T14:17:41.539Z,10.70
2018-11-03T14:20:25.248Z,10.70
2018-11-03T14:23:22.640Z,10.60
2018-11-03T14:26:21.844Z,10.60
2018-11-03T14:29:00.743Z,10.60
2018-11-03T14:34:40.646Z,10.60
2018-11-03T14:37:29.165Z,10.60
2018-11-03T14:40:39.962Z,10.60
2018-11-03T14:43:27.408Z,10.60
2018-11-03T14:49:06.721Z,10.50
2018-11-03T14:51:56.188Z,10.40
2018-11-03T14:54:53.247Z,10.30
2018-11-03T14:57:39.280Z,10.30
2018-11-03T15:03:31.343Z,10.30
2018-11-03T15:06:34.956Z,10.30
2018-11-03T15:15:24.318Z,10.10
2018-11-03T15:17:57.772Z,10.00
2018-11-03T15:24:50.159Z,10.00
2018-11-03T15:27:38.806Z,9.90
2018-11-03T15:33:17.952Z,9.60
2018-11-03T15:39:01.528Z,9.20
2018-11-03T15:41:58.550Z,9.10
2018-11-03T15:47:46.735Z,9.00
2018-11-03T15:53:45.449Z,8.90
2018-11-03T15:56:25.407Z,8.70
2018-11-03T15:59:27.588Z,8.60
2018-11-03T16:05:24.666Z,8.40
2018-11-03T16:11:32.349Z,8.20
2018-11-03T16:14:58.637Z,8.10
2018-11-03T16:21:06.205Z,7.90
2018-11-03T16:23:57.660Z,7.80
2018-11-03T16:27:30.477Z,7.80
2018-11-03T16:33:56.473Z,7.70
2018-11-03T16:36:59.586Z,7.60
2018-11-03T16:46:19.853Z,7.40
2018-11-03T16:52:27.135Z,7.00
2018-11-03T16:55:19.039Z,6.80
2018-11-03T16:58:15.452Z,6.70
2018-11-03T17:04:04.758Z,6.80
2018-11-03T17:06:49.974Z,6.80
2018-11-03T17:09:36.824Z,6.80
2018-11-03T17:12:24.377Z,6.90
2018-11-03T17:15:12.052Z,6.90
2018-11-03T17:17:55.799Z,7.00
2018-11-03T17:20:38.914Z,7.00
2018-11-03T17:23:18.824Z,6.90
2018-11-03T17:25:54.881Z,6.80
2018-11-03T17:28:39.489Z,6.70
2018-11-03T17:31:25.881Z,6.50
2018-11-03T17:34:03.692Z,6.40
2018-11-03T17:36:40.802Z,6.20
2018-11-03T17:39:20.873Z,6.00
2018-11-03T17:44:49.449Z,6.10
2018-11-03T17:47:29.006Z,6.10
2018-11-03T17:50:04.317Z,6.10
2018-11-03T17:52:37.530Z,6.10
2018-11-03T17:55:11.945Z,6.20
2018-11-03T17:57:45.647Z,6.20
2018-11-03T18:00:24.139Z,6.30
2018-11-03T18:03:06.787Z,6.30
2018-11-03T18:12:04.788Z,5.80
2018-11-03T18:14:59.872Z,5.60
2018-11-03T18:17:46.751Z,5.50
2018-11-03T18:23:34.884Z,5.50
2018-11-03T18:26:15.805Z,5.60
2018-11-03T18:29:18.800Z,5.60
2018-11-03T18:35:02.645Z,5.50
2018-11-03T18:37:40.468Z,5.50
2018-11-03T18:40:17.439Z,5.50
2018-11-03T18:43:03.857Z,5.50
2018-11-03T18:45:43.369Z,5.60
2018-11-03T18:48:31.761Z,5.60
2018-11-03T18:51:43.658Z,5.50
2018-11-03T18:54:36.578Z,5.50
2018-11-03T18:57:47.180Z,5.40
2018-11-03T19:00:53.682Z,5.30
2018-11-03T19:03:52.614Z,5.30
2018-11-03T19:12:54.696Z,5.40
2018-11-03T19:22:16.477Z,5.20
2018-11-03T19:25:28.115Z,5.00
2018-11-03T19:28:15.360Z,4.90
2018-11-03T19:31:07.999Z,4.80
2018-11-03T19:33:56.959Z,4.70
2018-11-03T19:39:17.665Z,4.70
2018-11-03T19:42:05.246Z,4.70
2018-11-03T19:48:28.472Z,4.70
2018-11-03T19:51:18.552Z,4.70
2018-11-03T19:54:15.143Z,4.60
2018-11-03T19:57:05.590Z,4.60
2018-11-03T19:59:53.614Z,4.50
2018-11-03T20:08:43.898Z,4.40
2018-11-03T20:18:20.312Z,4.40
2018-11-03T20:20:59.453Z,4.40
2018-11-03T20:23:49.594Z,4.30
2018-11-03T20:40:13.552Z,4.10
2018-11-03T20:46:30.644Z,4.00
2018-11-03T20:49:34.508Z,4.10
2018-11-03T21:04:36.931Z,4.00
2018-11-03T21:07:17.956Z,4.00
2018-11-03T21:12:48.418Z,4.00
2018-11-03T21:15:59.618Z,4.00
2018-11-03T21:18:53.131Z,4.00
2018-11-03T21:21:35.531Z,4.00
2018-11-03T21:24:15.144Z,3.90
2018-11-03T21:29:43.003Z,3.80
2018-11-03T21:32:17.865Z,3.90
2018-11-03T21:34:55.227Z,3.80
2018-11-03T21:37:42.545Z,3.80
2018-11-03T21:46:21.936Z,3.70
2018-11-03T21:49:09.033Z,3.80
2018-11-03T21:51:53.129Z,3.70
2018-11-03T21:57:40.229Z,3.70
2018-11-03T22:03:15.537Z,3.70
